sensor_id;sensor_type;location;lat;lon;timestamp;pressure;altitude;pressure_sealevel;temperature;humidity
44734;BME280;30462;52.446;-1.930;2023-08-31T00:00:18;99628.64844;;;;
44734;BME280;30462;52.446;-1.930;2023-08-31T00:01:18;99626.45313;;;;
44734;BME280;30462;52.446;-1.930;2023-08-31T00:02:17;99627.28516;;;;
44734;BME280;30462;52.446;-1.930;2023-08-31T00:03:17;99627.40234;;;;
44734;BME280;30462;52.446;-1.930;2023-08-31T00:04:18;99631.21484;;;;
44734;BME280;30462;52.446;-1.930;2023-08-31T00:05:18;99630.61719;;;;
44734;BME280;30462;52.446;-1.930;2023-08-31T00:06:18;99635.16797;;;;
44734;BME280;30462;52.446;-1.930;2023-08-31T00:07:17;99631.80859;;;;
44734;BME280;30462;52.446;-1.930;2023-08-31T00:08:18;99628.84766;;;;
44734;BME280;30462;52.446;-1.930;2023-08-31T00:09:18;99628.72266;;;;
44734;BME280;30462;52.446;-1.930;2023-08-31T00:10:18;99629.39844;;;;
44734;BME280;30462;52.446;-1.930;2023-08-31T00:11:17;99633.70313;;;;
44734;BME280;30462;52.446;-1.930;2023-08-31T00:12:18;99632.41797;;;;
44734;BME280;30462;52.446;-1.930;2023-08-31T00:13:18;99632.50391;;;;
44734;BME280;30462;52.446;-1.930;2023-08-31T00:14:18;99632.65625;;;;
44734;BME280;30462;52.446;-1.930;2023-08-31T00:15:18;99633.69531;;;;
44734;BME280;30462;52.446;-1.930;2023-08-31T00:16:19;99630.27344;;;;
44734;BME280;30462;52.446;-1.930;2023-08-31T00:17:18;99629.01563;;;;
44734;BME280;30462;52.446;-1.930;2023-08-31T00:18:18;99629.96094;;;;
44734;BME280;30462;52.446;-1.930;2023-08-31T00:19:18;99627.11719;;;;
44734;BME280;30462;52.446;-1.930;2023-08-31T00:20:18;99629.03906;;;;
44734;BME280;30462;52.446;-1.930;2023-08-31T00:21:18;99630.85156;;;;
44734;BME280;30462;52.446;-1.930;2023-08-31T00:22:18;99629.58203;;;;
44734;BME280;30462;52.446;-1.930;2023-08-31T00:23:18;99627.23047;;;;
44734;BME280;30462;52.446;-1.930;2023-08-31T00:24:18;99624.28125;;;;
44734;BME280;30462;52.446;-1.930;2023-08-31T00:25:17;99620.85547;;;;
44734;BME280;30462;52.446;-1.930;2023-08-31T00:26:18;99617.52734;;;;
44734;BME280;30462;52.446;-1.930;2023-08-31T00:27:18;99618.53516;;;;
44734;BME280;30462;52.446;-1.930;2023-08-31T00:28:18;99612.92188;;;;
44734;BME280;30462;52.446;-1.930;2023-08-31T00:29:17;99612.61719;;;;
44734;BME280;30462;52.446;-1.930;2023-08-31T00:30:18;99609.35547;;;;
44734;BME280;30462;52.446;-1.930;2023-08-31T00:31:18;99608.78125;;;;
44734;BME280;30462;52.446;-1.930;2023-08-31T00:32:18;99607.70703;;;;
44734;BME280;30462;52.446;-1.930;2023-08-31T00:33:18;99608.08594;;;;
44734;BME280;30462;52.446;-1.930;2023-08-31T00:34:17;99608.375;;;;
44734;BME280;30462;52.446;-1.930;2023-08-31T00:35:18;99601.55859;;;;
44734;BME280;30462;52.446;-1.930;2023-08-31T00:36:18;99603.82813;;;;
44734;BME280;30462;52.446;-1.930;2023-08-31T00:37:18;99601.90234;;;;
44734;BME280;30462;52.446;-1.930;2023-08-31T00:38:18;99598.66797;;;;
44734;BME280;30462;52.446;-1.930;2023-08-31T00:39:17;99601.46094;;;;
44734;BME280;30462;52.446;-1.930;2023-08-31T00:40:18;99597.78906;;;;
44734;BME280;30462;52.446;-1.930;2023-08-31T00:41:18;99597.23828;;;;
44734;BME280;30462;52.446;-1.930;2023-08-31T00:42:18;99598.1875;;;;
44734;BME280;30462;52.446;-1.930;2023-08-31T00:43:18;99596.40625;;;;
44734;BME280;30462;52.446;-1.930;2023-08-31T00:44:18;99599.28906;;;;
44734;BME280;30462;52.446;-1.930;2023-08-31T00:45:18;99595.48828;;;;
44734;BME280;30462;52.446;-1.930;2023-08-31T00:46:18;99594.00391;;;;
44734;BME280;30462;52.446;-1.930;2023-08-31T00:47:18;99596.10547;;;;
44734;BME280;30462;52.446;-1.930;2023-08-31T00:48:18;99593.25781;;;;
44734;BME280;30462;52.446;-1.930;2023-08-31T00:49:18;99592.63281;;;;
44734;BME280;30462;52.446;-1.930;2023-08-31T00:50:18;99594.85547;;;;
44734;BME280;30462;52.446;-1.930;2023-08-31T00:51:18;99592.15625;;;;
44734;BME280;30462;52.446;-1.930;2023-08-31T00:52:18;99591.89063;;;;
44734;BME280;30462;52.446;-1.930;2023-08-31T00:53:17;99593.80469;;;;
44734;BME280;30462;52.446;-1.930;2023-08-31T00:54:17;99593.10547;;;;
44734;BME280;30462;52.446;-1.930;2023-08-31T00:55:17;99593.41797;;;;
44734;BME280;30462;52.446;-1.930;2023-08-31T00:56:18;99590.46094;;;;
44734;BME280;30462;52.446;-1.930;2023-08-31T00:57:18;99594.01563;;;;
44734;BME280;30462;52.446;-1.930;2023-08-31T00:58:18;99594.01563;;;;
44734;BME280;30462;52.446;-1.930;2023-08-31T00:59:18;99591.78125;;;;
44734;BME280;30462;52.446;-1.930;2023-08-31T01:00:18;99592.67188;;;;
44734;BME280;30462;52.446;-1.930;2023-08-31T01:01:21;99592.83203;;;;
44734;BME280;30462;52.446;-1.930;2023-08-31T01:02:22;99591.52734;;;;
44734;BME280;30462;52.446;-1.930;2023-08-31T01:03:19;99592.06641;;;;
44734;BME280;30462;52.446;-1.930;2023-08-31T01:04:21;99593.05469;;;;
44734;BME280;30462;52.446;-1.930;2023-08-31T01:06:21;99593.85547;;;;
44734;BME280;30462;52.446;-1.930;2023-08-31T01:07:21;99593.39063;;;;
44734;BME280;30462;52.446;-1.930;2023-08-31T01:08:22;99594.45313;;;;
44734;BME280;30462;52.446;-1.930;2023-08-31T01:09:20;99592.26172;;;;
44734;BME280;30462;52.446;-1.930;2023-08-31T01:10:20;99592.53516;;;;
44734;BME280;30462;52.446;-1.930;2023-08-31T01:11:24;99587.86719;;;;
44734;BME280;30462;52.446;-1.930;2023-08-31T01:12:20;99590.90625;;;;
44734;BME280;30462;52.446;-1.930;2023-08-31T01:13:20;99591.71094;;;;
44734;BME280;30462;52.446;-1.930;2023-08-31T01:14:19;99589.91797;;;;
44734;BME280;30462;52.446;-1.930;2023-08-31T01:15:18;99588.44141;;;;
44734;BME280;30462;52.446;-1.930;2023-08-31T01:16:18;99589.35547;;;;
44734;BME280;30462;52.446;-1.930;2023-08-31T01:17:18;99585.79688;;;;
44734;BME280;30462;52.446;-1.930;2023-08-31T01:18:18;99587.94141;;;;
44734;BME280;30462;52.446;-1.930;2023-08-31T01:20:19;99589.07813;;;;
44734;BME280;30462;52.446;-1.930;2023-08-31T01:21:20;99592.82422;;;;
44734;BME280;30462;52.446;-1.930;2023-08-31T01:22:21;99593.51563;;;;
44734;BME280;30462;52.446;-1.930;2023-08-31T01:23:19;99599.50391;;;;
44734;BME280;30462;52.446;-1.930;2023-08-31T01:24:18;99600.80469;;;;
44734;BME280;30462;52.446;-1.930;2023-08-31T01:25:18;99601.62891;;;;
44734;BME280;30462;52.446;-1.930;2023-08-31T01:26:17;99602.99609;;;;
44734;BME280;30462;52.446;-1.930;2023-08-31T01:27:18;99600.76563;;;;
44734;BME280;30462;52.446;-1.930;2023-08-31T01:28:17;99600.03125;;;;
44734;BME280;30462;52.446;-1.930;2023-08-31T01:29:18;99601.18359;;;;
44734;BME280;30462;52.446;-1.930;2023-08-31T01:30:18;99598.78906;;;;
44734;BME280;30462;52.446;-1.930;2023-08-31T01:31:18;99601.91797;;;;
44734;BME280;30462;52.446;-1.930;2023-08-31T01:32:17;99603.61328;;;;
44734;BME280;30462;52.446;-1.930;2023-08-31T01:33:18;99600.04297;;;;
44734;BME280;30462;52.446;-1.930;2023-08-31T01:34:18;99607.34766;;;;
44734;BME280;30462;52.446;-1.930;2023-08-31T01:35:17;99606.56641;;;;
44734;BME280;30462;52.446;-1.930;2023-08-31T01:36:19;99608.49609;;;;
44734;BME280;30462;52.446;-1.930;2023-08-31T01:37:25;99609.48047;;;;
44734;BME280;30462;52.446;-1.930;2023-08-31T01:38:18;99606.06641;;;;
44734;BME280;30462;52.446;-1.930;2023-08-31T01:40:20;99603.38281;;;;
44734;BME280;30462;52.446;-1.930;2023-08-31T01:41:17;99599.26953;;;;
44734;BME280;30462;52.446;-1.930;2023-08-31T01:42:18;99604.27344;;;;
44734;BME280;30462;52.446;-1.930;2023-08-31T01:43:18;99596.90625;;;;
44734;BME280;30462;52.446;-1.930;2023-08-31T01:44:18;99597.5;;;;
44734;BME280;30462;52.446;-1.930;2023-08-31T01:45:18;99598.54297;;;;
44734;BME280;30462;52.446;-1.930;2023-08-31T01:46:18;99598.94141;;;;
44734;BME280;30462;52.446;-1.930;2023-08-31T01:47:18;99598.24219;;;;
44734;BME280;30462;52.446;-1.930;2023-08-31T01:48:18;99596.09375;;;;
44734;BME280;30462;52.446;-1.930;2023-08-31T01:49:19;99598.76563;;;;
44734;BME280;30462;52.446;-1.930;2023-08-31T01:50:18;99600.90625;;;;
44734;BME280;30462;52.446;-1.930;2023-08-31T01:51:18;99599.82813;;;;
44734;BME280;30462;52.446;-1.930;2023-08-31T01:52:18;99596.76563;;;;
44734;BME280;30462;52.446;-1.930;2023-08-31T01:53:18;99593.60547;;;;
44734;BME280;30462;52.446;-1.930;2023-08-31T01:54:17;99592.07813;;;;
44734;BME280;30462;52.446;-1.930;2023-08-31T01:55:18;99596.05859;;;;
44734;BME280;30462;52.446;-1.930;2023-08-31T01:56:17;99594.68359;;;;
44734;BME280;30462;52.446;-1.930;2023-08-31T01:57:18;99595.53516;;;;
44734;BME280;30462;52.446;-1.930;2023-08-31T01:58:18;99596.48828;;;;
44734;BME280;30462;52.446;-1.930;2023-08-31T01:59:18;99596.54297;;;;
44734;BME280;30462;52.446;-1.930;2023-08-31T02:00:18;99600.63281;;;;
44734;BME280;30462;52.446;-1.930;2023-08-31T02:01:17;99598.83203;;;;
44734;BME280;30462;52.446;-1.930;2023-08-31T02:02:18;99595.59766;;;;
44734;BME280;30462;52.446;-1.930;2023-08-31T02:03:18;99597.49219;;;;
44734;BME280;30462;52.446;-1.930;2023-08-31T02:04:18;99596.34766;;;;
44734;BME280;30462;52.446;-1.930;2023-08-31T02:05:17;99592.99609;;;;
44734;BME280;30462;52.446;-1.930;2023-08-31T02:06:18;99594.72656;;;;
44734;BME280;30462;52.446;-1.930;2023-08-31T02:07:18;99597.35938;;;;
44734;BME280;30462;52.446;-1.930;2023-08-31T02:08:18;99596.60156;;;;
44734;BME280;30462;52.446;-1.930;2023-08-31T02:09:18;99590.80078;;;;
44734;BME280;30462;52.446;-1.930;2023-08-31T02:10:18;99593.36719;;;;
44734;BME280;30462;52.446;-1.930;2023-08-31T02:11:18;99591.76953;;;;
44734;BME280;30462;52.446;-1.930;2023-08-31T02:12:17;99592.24609;;;;
44734;BME280;30462;52.446;-1.930;2023-08-31T02:13:17;99586.92188;;;;
44734;BME280;30462;52.446;-1.930;2023-08-31T02:14:18;99586.43359;;;;
44734;BME280;30462;52.446;-1.930;2023-08-31T02:15:18;99582.43359;;;;
44734;BME280;30462;52.446;-1.930;2023-08-31T02:16:18;99585.33203;;;;
44734;BME280;30462;52.446;-1.930;2023-08-31T02:17:18;99584.95313;;;;
44734;BME280;30462;52.446;-1.930;2023-08-31T02:18:17;99584.35938;;;;
44734;BME280;30462;52.446;-1.930;2023-08-31T02:19:18;99582.71094;;;;
44734;BME280;30462;52.446;-1.930;2023-08-31T02:20:18;99582.33594;;;;
44734;BME280;30462;52.446;-1.930;2023-08-31T02:21:18;99579.69141;;;;
44734;BME280;30462;52.446;-1.930;2023-08-31T02:22:17;99580.91406;;;;
44734;BME280;30462;52.446;-1.930;2023-08-31T02:23:17;99582.01563;;;;
44734;BME280;30462;52.446;-1.930;2023-08-31T02:24:19;99580.63281;;;;
44734;BME280;30462;52.446;-1.930;2023-08-31T02:25:18;99580.86328;;;;
44734;BME280;30462;52.446;-1.930;2023-08-31T02:26:18;99581.0625;;;;
44734;BME280;30462;52.446;-1.930;2023-08-31T02:27:18;99582.45313;;;;
44734;BME280;30462;52.446;-1.930;2023-08-31T02:28:17;99581.29297;;;;
44734;BME280;30462;52.446;-1.930;2023-08-31T02:29:18;99582.39844;;;;
44734;BME280;30462;52.446;-1.930;2023-08-31T02:30:18;99579.75391;;;;
44734;BME280;30462;52.446;-1.930;2023-08-31T02:31:18;99579.58984;;;;
44734;BME280;30462;52.446;-1.930;2023-08-31T02:32:18;99581.11328;;;;
44734;BME280;30462;52.446;-1.930;2023-08-31T02:33:18;99575.74609;;;;
44734;BME280;30462;52.446;-1.930;2023-08-31T02:34:17;99575.58984;;;;
44734;BME280;30462;52.446;-1.930;2023-08-31T02:35:18;99574.97266;;;;
44734;BME280;30462;52.446;-1.930;2023-08-31T02:36:18;99572.23828;;;;
44734;BME280;30462;52.446;-1.930;2023-08-31T02:37:18;99574.66406;;;;
44734;BME280;30462;52.446;-1.930;2023-08-31T02:38:18;99575.80859;;;;
44734;BME280;30462;52.446;-1.930;2023-08-31T02:39:17;99575.48438;;;;
44734;BME280;30462;52.446;-1.930;2023-08-31T02:40:18;99579.19922;;;;
44734;BME280;30462;52.446;-1.930;2023-08-31T02:41:18;99576.42188;;;;
44734;BME280;30462;52.446;-1.930;2023-08-31T02:42:18;99573.98438;;;;
44734;BME280;30462;52.446;-1.930;2023-08-31T02:43:18;99575.20313;;;;
44734;BME280;30462;52.446;-1.930;2023-08-31T02:44:18;99577.6875;;;;
44734;BME280;30462;52.446;-1.930;2023-08-31T02:45:17;99574.92969;;;;
44734;BME280;30462;52.446;-1.930;2023-08-31T02:46:17;99571.64453;;;;
44734;BME280;30462;52.446;-1.930;2023-08-31T02:47:18;99572.05859;;;;
44734;BME280;30462;52.446;-1.930;2023-08-31T02:48:18;99570.96875;;;;
44734;BME280;30462;52.446;-1.930;2023-08-31T02:49:18;99569.36328;;;;
44734;BME280;30462;52.446;-1.930;2023-08-31T02:50:18;99573.81641;;;;
44734;BME280;30462;52.446;-1.930;2023-08-31T02:51:17;99570.09375;;;;
44734;BME280;30462;52.446;-1.930;2023-08-31T02:52:18;99568.97266;;;;
44734;BME280;30462;52.446;-1.930;2023-08-31T02:53:18;99566.34766;;;;
44734;BME280;30462;52.446;-1.930;2023-08-31T02:54:18;99562.30469;;;;
44734;BME280;30462;52.446;-1.930;2023-08-31T02:55:17;99563.71875;;;;
44734;BME280;30462;52.446;-1.930;2023-08-31T02:56:17;99555.71094;;;;
44734;BME280;30462;52.446;-1.930;2023-08-31T02:57:18;99558.76563;;;;
44734;BME280;30462;52.446;-1.930;2023-08-31T02:58:18;99555.82813;;;;
44734;BME280;30462;52.446;-1.930;2023-08-31T02:59:18;99559.23047;;;;
44734;BME280;30462;52.446;-1.930;2023-08-31T03:00:18;99558.45313;;;;
44734;BME280;30462;52.446;-1.930;2023-08-31T03:01:17;99557.84375;;;;
44734;BME280;30462;52.446;-1.930;2023-08-31T03:02:18;99560.04688;;;;
44734;BME280;30462;52.446;-1.930;2023-08-31T03:03:18;99558.60547;;;;
44734;BME280;30462;52.446;-1.930;2023-08-31T03:04:18;99560.13672;;;;
44734;BME280;30462;52.446;-1.930;2023-08-31T03:05:18;99557.78516;;;;
44734;BME280;30462;52.446;-1.930;2023-08-31T03:06:18;99558.71094;;;;
44734;BME280;30462;52.446;-1.930;2023-08-31T03:07:18;99562.60938;;;;
44734;BME280;30462;52.446;-1.930;2023-08-31T03:08:17;99560.16406;;;;
44734;BME280;30462;52.446;-1.930;2023-08-31T03:09:17;99557.40625;;;;
44734;BME280;30462;52.446;-1.930;2023-08-31T03:10:20;99555.63281;;;;
44734;BME280;30462;52.446;-1.930;2023-08-31T03:11:18;99558.70313;;;;
44734;BME280;30462;52.446;-1.930;2023-08-31T03:12:18;99556.62109;;;;
44734;BME280;30462;52.446;-1.930;2023-08-31T03:13:18;99556.97266;;;;
44734;BME280;30462;52.446;-1.930;2023-08-31T03:14:18;99558.77344;;;;
44734;BME280;30462;52.446;-1.930;2023-08-31T03:15:17;99558.26953;;;;
44734;BME280;30462;52.446;-1.930;2023-08-31T03:16:18;99553.83984;;;;
44734;BME280;30462;52.446;-1.930;2023-08-31T03:17:17;99553.00781;;;;
44734;BME280;30462;52.446;-1.930;2023-08-31T03:18:17;99554.54688;;;;
44734;BME280;30462;52.446;-1.930;2023-08-31T03:19:18;99550.16016;;;;
44734;BME280;30462;52.446;-1.930;2023-08-31T03:20:18;99544.67578;;;;
44734;BME280;30462;52.446;-1.930;2023-08-31T03:21:18;99549.66406;;;;
44734;BME280;30462;52.446;-1.930;2023-08-31T03:22:18;99547.32422;;;;
44734;BME280;30462;52.446;-1.930;2023-08-31T03:23:17;99545;;;;
44734;BME280;30462;52.446;-1.930;2023-08-31T03:24:17;99542.97656;;;;
44734;BME280;30462;52.446;-1.930;2023-08-31T03:25:18;99541.99609;;;;
44734;BME280;30462;52.446;-1.930;2023-08-31T03:26:18;99539.53125;;;;
44734;BME280;30462;52.446;-1.930;2023-08-31T03:27:18;99540.05078;;;;
44734;BME280;30462;52.446;-1.930;2023-08-31T03:28:17;99542.45703;;;;
44734;BME280;30462;52.446;-1.930;2023-08-31T03:29:18;99545.09766;;;;
44734;BME280;30462;52.446;-1.930;2023-08-31T03:30:18;99545.72656;;;;
44734;BME280;30462;52.446;-1.930;2023-08-31T03:31:18;99544.69531;;;;
44734;BME280;30462;52.446;-1.930;2023-08-31T03:32:18;99544.95313;;;;
44734;BME280;30462;52.446;-1.930;2023-08-31T03:33:18;99543.03125;;;;
44734;BME280;30462;52.446;-1.930;2023-08-31T03:34:18;99539.23438;;;;
44734;BME280;30462;52.446;-1.930;2023-08-31T03:35:18;99541.00781;;;;
44734;BME280;30462;52.446;-1.930;2023-08-31T03:36:18;99542.09766;;;;
44734;BME280;30462;52.446;-1.930;2023-08-31T03:37:17;99543.97266;;;;
44734;BME280;30462;52.446;-1.930;2023-08-31T03:38:17;99541.57813;;;;
44734;BME280;30462;52.446;-1.930;2023-08-31T03:39:18;99543.49609;;;;
44734;BME280;30462;52.446;-1.930;2023-08-31T03:40:18;99540.91797;;;;
44734;BME280;30462;52.446;-1.930;2023-08-31T03:41:18;99544.87891;;;;
44734;BME280;30462;52.446;-1.930;2023-08-31T03:42:18;99541.12891;;;;
44734;BME280;30462;52.446;-1.930;2023-08-31T03:43:18;99544.32031;;;;
44734;BME280;30462;52.446;-1.930;2023-08-31T03:44:19;99540.26953;;;;
44734;BME280;30462;52.446;-1.930;2023-08-31T03:45:17;99542.57031;;;;
44734;BME280;30462;52.446;-1.930;2023-08-31T03:46:18;99545.68359;;;;
44734;BME280;30462;52.446;-1.930;2023-08-31T03:47:18;99547.88672;;;;
44734;BME280;30462;52.446;-1.930;2023-08-31T03:48:18;99541.95703;;;;
44734;BME280;30462;52.446;-1.930;2023-08-31T03:49:17;99547.63281;;;;
44734;BME280;30462;52.446;-1.930;2023-08-31T03:50:18;99547.23828;;;;
44734;BME280;30462;52.446;-1.930;2023-08-31T03:51:18;99544.20703;;;;
44734;BME280;30462;52.446;-1.930;2023-08-31T03:52:18;99542.23047;;;;
44734;BME280;30462;52.446;-1.930;2023-08-31T03:53:17;99540.10547;;;;
44734;BME280;30462;52.446;-1.930;2023-08-31T03:54:18;99540.64844;;;;
44734;BME280;30462;52.446;-1.930;2023-08-31T03:55:18;99540.95703;;;;
44734;BME280;30462;52.446;-1.930;2023-08-31T03:56:18;99543.64844;;;;
44734;BME280;30462;52.446;-1.930;2023-08-31T03:57:17;99545.26953;;;;
44734;BME280;30462;52.446;-1.930;2023-08-31T03:58:17;99550.16797;;;;
44734;BME280;30462;52.446;-1.930;2023-08-31T03:59:18;99549.30859;;;;
44734;BME280;30462;52.446;-1.930;2023-08-31T04:00:18;99547.70703;;;;
44734;BME280;30462;52.446;-1.930;2023-08-31T04:01:18;99551.42578;;;;
44734;BME280;30462;52.446;-1.930;2023-08-31T04:02:18;99550.5625;;;;
44734;BME280;30462;52.446;-1.930;2023-08-31T04:03:17;99549.14063;;;;
44734;BME280;30462;52.446;-1.930;2023-08-31T04:04:18;99549.57813;;;;
44734;BME280;30462;52.446;-1.930;2023-08-31T04:05:18;99554.73438;;;;
44734;BME280;30462;52.446;-1.930;2023-08-31T04:06:18;99554.23828;;;;
44734;BME280;30462;52.446;-1.930;2023-08-31T04:07:18;99555.85156;;;;
44734;BME280;30462;52.446;-1.930;2023-08-31T04:08:17;99551.34766;;;;
44734;BME280;30462;52.446;-1.930;2023-08-31T04:09:18;99548.63281;;;;
44734;BME280;30462;52.446;-1.930;2023-08-31T04:10:18;99546.34375;;;;
44734;BME280;30462;52.446;-1.930;2023-08-31T04:11:18;99545.01563;;;;
44734;BME280;30462;52.446;-1.930;2023-08-31T04:12:17;99548.51953;;;;
44734;BME280;30462;52.446;-1.930;2023-08-31T04:13:17;99549.24219;;;;
44734;BME280;30462;52.446;-1.930;2023-08-31T04:14:18;99549.82422;;;;
44734;BME280;30462;52.446;-1.930;2023-08-31T04:15:18;99551.35547;;;;
44734;BME280;30462;52.446;-1.930;2023-08-31T04:16:18;99550.20313;;;;
44734;BME280;30462;52.446;-1.930;2023-08-31T04:17:17;99549.75781;;;;
44734;BME280;30462;52.446;-1.930;2023-08-31T04:18:18;99549.08984;;;;
44734;BME280;30462;52.446;-1.930;2023-08-31T04:19:17;99548.42969;;;;
44734;BME280;30462;52.446;-1.930;2023-08-31T04:20:18;99549.47656;;;;
44734;BME280;30462;52.446;-1.930;2023-08-31T04:21:18;99544.55469;;;;
44734;BME280;30462;52.446;-1.930;2023-08-31T04:22:18;99542.03516;;;;
44734;BME280;30462;52.446;-1.930;2023-08-31T04:23:18;99543.64453;;;;
44734;BME280;30462;52.446;-1.930;2023-08-31T04:24:18;99544.60938;;;;
44734;BME280;30462;52.446;-1.930;2023-08-31T04:25:17;99543.94141;;;;
44734;BME280;30462;52.446;-1.930;2023-08-31T04:26:18;99541.63672;;;;
44734;BME280;30462;52.446;-1.930;2023-08-31T04:27:18;99542.51953;;;;
44734;BME280;30462;52.446;-1.930;2023-08-31T04:28:18;99542.14063;;;;
44734;BME280;30462;52.446;-1.930;2023-08-31T04:29:18;99541.48828;;;;
44734;BME280;30462;52.446;-1.930;2023-08-31T04:30:17;99541.51172;;;;
44734;BME280;30462;52.446;-1.930;2023-08-31T04:31:18;99542.17969;;;;
44734;BME280;30462;52.446;-1.930;2023-08-31T04:32:18;99543.59375;;;;
44734;BME280;30462;52.446;-1.930;2023-08-31T04:33:18;99545.35547;;;;
44734;BME280;30462;52.446;-1.930;2023-08-31T04:34:18;99545.64063;;;;
44734;BME280;30462;52.446;-1.930;2023-08-31T04:35:17;99545.3125;;;;
44734;BME280;30462;52.446;-1.930;2023-08-31T04:36:18;99545.13281;;;;
44734;BME280;30462;52.446;-1.930;2023-08-31T04:37:18;99539.65625;;;;
44734;BME280;30462;52.446;-1.930;2023-08-31T04:38:18;99542.61328;;;;
44734;BME280;30462;52.446;-1.930;2023-08-31T04:39:17;99545.48828;;;;
44734;BME280;30462;52.446;-1.930;2023-08-31T04:40:17;99545.43359;;;;
44734;BME280;30462;52.446;-1.930;2023-08-31T04:41:18;99545.32813;;;;
44734;BME280;30462;52.446;-1.930;2023-08-31T04:42:18;99546.10156;;;;
44734;BME280;30462;52.446;-1.930;2023-08-31T04:43:18;99547.80469;;;;
44734;BME280;30462;52.446;-1.930;2023-08-31T04:44:17;99547.59375;;;;
44734;BME280;30462;52.446;-1.930;2023-08-31T04:45:18;99549.99609;;;;
44734;BME280;30462;52.446;-1.930;2023-08-31T04:46:17;99551.02344;;;;
44734;BME280;30462;52.446;-1.930;2023-08-31T04:47:18;99556.64453;;;;
44734;BME280;30462;52.446;-1.930;2023-08-31T04:48:18;99554.22656;;;;
44734;BME280;30462;52.446;-1.930;2023-08-31T04:49:18;99555.5625;;;;
44734;BME280;30462;52.446;-1.930;2023-08-31T04:50:17;99558.72656;;;;
44734;BME280;30462;52.446;-1.930;2023-08-31T04:52:18;99557.00391;;;;
44734;BME280;30462;52.446;-1.930;2023-08-31T04:53:18;99558.21484;;;;
44734;BME280;30462;52.446;-1.930;2023-08-31T04:54:17;99557.48828;;;;
44734;BME280;30462;52.446;-1.930;2023-08-31T04:55:18;99560.77344;;;;
44734;BME280;30462;52.446;-1.930;2023-08-31T04:56:17;99562.16406;;;;
44734;BME280;30462;52.446;-1.930;2023-08-31T04:57:18;99559.70703;;;;
44734;BME280;30462;52.446;-1.930;2023-08-31T04:58:18;99560.89063;;;;
44734;BME280;30462;52.446;-1.930;2023-08-31T04:59:18;99563.03516;;;;
44734;BME280;30462;52.446;-1.930;2023-08-31T05:00:18;99565.58984;;;;
44734;BME280;30462;52.446;-1.930;2023-08-31T05:01:18;99567.91016;;;;
44734;BME280;30462;52.446;-1.930;2023-08-31T05:02:18;99564.99219;;;;
44734;BME280;30462;52.446;-1.930;2023-08-31T05:03:18;99566.46484;;;;
44734;BME280;30462;52.446;-1.930;2023-08-31T05:04:17;99566.59375;;;;
44734;BME280;30462;52.446;-1.930;2023-08-31T05:05:18;99566.03906;;;;
44734;BME280;30462;52.446;-1.930;2023-08-31T05:06:17;99569.14844;;;;
44734;BME280;30462;52.446;-1.930;2023-08-31T05:07:17;99569.60547;;;;
44734;BME280;30462;52.446;-1.930;2023-08-31T05:08:18;99565.47656;;;;
44734;BME280;30462;52.446;-1.930;2023-08-31T05:09:18;99566.57031;;;;
44734;BME280;30462;52.446;-1.930;2023-08-31T05:10:18;99566.26563;;;;
44734;BME280;30462;52.446;-1.930;2023-08-31T05:11:17;99563.32422;;;;
44734;BME280;30462;52.446;-1.930;2023-08-31T05:12:18;99558.73828;;;;
44734;BME280;30462;52.446;-1.930;2023-08-31T05:13:18;99559.14063;;;;
44734;BME280;30462;52.446;-1.930;2023-08-31T05:14:18;99553.60156;;;;
44734;BME280;30462;52.446;-1.930;2023-08-31T05:15:18;99552.42578;;;;
44734;BME280;30462;52.446;-1.930;2023-08-31T05:16:17;99549.32031;;;;
44734;BME280;30462;52.446;-1.930;2023-08-31T05:17:17;99547.21484;;;;
44734;BME280;30462;52.446;-1.930;2023-08-31T05:18:18;99544.09375;;;;
44734;BME280;30462;52.446;-1.930;2023-08-31T05:19:18;99544.63672;;;;
44734;BME280;30462;52.446;-1.930;2023-08-31T05:20:18;99543.54297;;;;
44734;BME280;30462;52.446;-1.930;2023-08-31T05:21:18;99542.42188;;;;
44734;BME280;30462;52.446;-1.930;2023-08-31T05:22:18;99542.48438;;;;
44734;BME280;30462;52.446;-1.930;2023-08-31T05:23:18;99540.38281;;;;
44734;BME280;30462;52.446;-1.930;2023-08-31T05:24:18;99535.76953;;;;
44734;BME280;30462;52.446;-1.930;2023-08-31T05:25:18;99537.58203;;;;
44734;BME280;30462;52.446;-1.930;2023-08-31T05:26:18;99538.29688;;;;
44734;BME280;30462;52.446;-1.930;2023-08-31T05:27:18;99534.74609;;;;
44734;BME280;30462;52.446;-1.930;2023-08-31T05:28:17;99535.17188;;;;
44734;BME280;30462;52.446;-1.930;2023-08-31T05:29:18;99534.45313;;;;
44734;BME280;30462;52.446;-1.930;2023-08-31T05:30:18;99536.30469;;;;
44734;BME280;30462;52.446;-1.930;2023-08-31T05:31:17;99532.83594;;;;
44734;BME280;30462;52.446;-1.930;2023-08-31T05:32:18;99536.70703;;;;
44734;BME280;30462;52.446;-1.930;2023-08-31T05:33:18;99537.19141;;;;
44734;BME280;30462;52.446;-1.930;2023-08-31T05:35:18;99541.21484;;;;
44734;BME280;30462;52.446;-1.930;2023-08-31T05:36:18;99539.33203;;;;
44734;BME280;30462;52.446;-1.930;2023-08-31T05:37:17;99539.86328;;;;
44734;BME280;30462;52.446;-1.930;2023-08-31T05:38:18;99539.79688;;;;
44734;BME280;30462;52.446;-1.930;2023-08-31T05:39:18;99543.20703;;;;
44734;BME280;30462;52.446;-1.930;2023-08-31T05:40:18;99545.67969;;;;
44734;BME280;30462;52.446;-1.930;2023-08-31T05:41:18;99547.21094;;;;
44734;BME280;30462;52.446;-1.930;2023-08-31T05:42:18;99549.16406;;;;
44734;BME280;30462;52.446;-1.930;2023-08-31T05:43:18;99546.42578;;;;
44734;BME280;30462;52.446;-1.930;2023-08-31T05:44:17;99548.98828;;;;
44734;BME280;30462;52.446;-1.930;2023-08-31T05:45:18;99549.33203;;;;
44734;BME280;30462;52.446;-1.930;2023-08-31T05:46:18;99545.44531;;;;
44734;BME280;30462;52.446;-1.930;2023-08-31T05:47:17;99549.61328;;;;
44734;BME280;30462;52.446;-1.930;2023-08-31T05:48:17;99550.44922;;;;
44734;BME280;30462;52.446;-1.930;2023-08-31T05:49:18;99553.625;;;;
44734;BME280;30462;52.446;-1.930;2023-08-31T05:50:18;99556.03906;;;;